Time;durP1;ratioP1;P1;durP2;ratioP2;P2;SDS_P1;SDS_P2;PMS_P1;PMS_P2;Temp;Humidity;BMP_temperature;BMP_pressure;BME280_temperature;BME280_humidity;BME280_pressure;Samples;Min_cycle;Max_cycle;Signal;HPM_P1;HPM_P2
2021/04/13 00:01:12;;;;;;;13.23;11.83;;;4.10;99.90;;;;;;5046946;28;20198;-46
2021/04/13 00:03:42;;;;;;;14.37;12.33;;;4.20;99.90;;;;;;5032118;28;20241;-45
2021/04/13 00:06:09;;;;;;;14.17;12.67;;;4.10;99.90;;;;;;5042959;28;20206;-55
2021/04/13 00:08:34;;;;;;;15.37;12.90;;;4.20;99.90;;;;;;5033764;28;20279;-54
2021/04/13 00:11:05;;;;;;;14.30;12.13;;;4.10;99.90;;;;;;5048028;28;20270;-50
2021/04/13 00:13:33;;;;;;;14.03;12.47;;;4.00;99.90;;;;;;5039314;28;20223;-50
2021/04/13 00:16:12;;;;;;;13.93;12.03;;;4.00;99.90;;;;;;5040429;28;20544;-47
2021/04/13 00:18:40;;;;;;;14.37;12.00;;;3.90;99.90;;;;;;5048329;28;20230;-52
2021/04/13 00:21:35;;;;;;;14.00;12.37;;;4.00;99.90;;;;;;5035400;28;20186;-45
2021/04/13 00:24:06;;;;;;;14.33;12.83;;;4.10;99.90;;;;;;5040177;28;20183;-47
2021/04/13 00:26:32;;;;;;;13.83;12.33;;;4.10;99.90;;;;;;5070246;28;20206;-46
2021/04/13 00:29:01;;;;;;;13.77;12.10;;;4.10;99.90;;;;;;5077270;28;20204;-46
2021/04/13 00:31:40;;;;;;;14.57;12.97;;;4.00;99.90;;;;;;5086737;28;20308;-46
2021/04/13 00:34:24;;;;;;;14.53;13.03;;;4.00;99.90;;;;;;5085971;28;20177;-55
2021/04/13 00:36:52;;;;;;;13.57;12.17;;;4.10;99.90;;;;;;5077219;28;20245;-57
2021/04/13 00:39:29;;;;;;;12.77;11.37;;;4.00;99.90;;;;;;5087995;28;20236;-48
2021/04/13 00:42:04;;;;;;;13.70;12.10;;;4.00;99.90;;;;;;5080116;28;20526;-54
2021/04/13 00:44:37;;;;;;;14.13;12.63;;;4.10;99.90;;;;;;5073625;28;20178;-51
2021/04/13 00:47:07;;;;;;;14.30;12.13;;;4.00;99.90;;;;;;5060037;28;20196;-47
2021/04/13 00:49:36;;;;;;;14.43;12.93;;;4.10;99.90;;;;;;5085826;28;20646;-47
2021/04/13 00:52:07;;;;;;;13.83;12.33;;;4.10;99.90;;;;;;5084979;28;20209;-54
2021/04/13 00:54:41;;;;;;;14.07;12.47;;;4.10;99.90;;;;;;5077819;28;20189;-48
2021/04/13 00:57:18;;;;;;;14.50;13.00;;;4.10;99.90;;;;;;5061612;28;20184;-50
2021/04/13 00:59:45;;;;;;;15.57;13.80;;;4.00;99.90;;;;;;5084058;28;20205;-47
2021/04/13 01:02:15;;;;;;;14.70;13.10;;;4.00;99.90;;;;;;5086356;28;20243;-45
2021/04/13 01:04:52;;;;;;;14.80;13.20;;;4.00;99.90;;;;;;5076933;28;20194;-46
2021/04/13 01:07:32;;;;;;;15.23;13.60;;;4.00;99.90;;;;;;5087927;28;20267;-47
2021/04/13 01:10:10;;;;;;;16.53;14.40;;;4.00;99.90;;;;;;5084365;28;20216;-46
2021/04/13 01:12:42;;;;;;;16.43;13.63;;;4.10;99.90;;;;;;5076986;28;20174;-57
2021/04/13 01:15:12;;;;;;;16.53;14.07;;;4.10;99.90;;;;;;5061623;28;20181;-45
2021/04/13 01:17:40;;;;;;;16.63;14.87;;;4.10;99.90;;;;;;5085264;28;20573;-46
2021/04/13 01:20:20;;;;;;;14.93;13.40;;;4.00;99.90;;;;;;5085340;28;20205;-45
2021/04/13 01:22:58;;;;;;;16.00;14.10;;;4.00;99.90;;;;;;5091976;28;20499;-54
2021/04/13 01:25:25;;;;;;;16.40;14.13;;;4.00;99.90;;;;;;5079790;28;20181;-56
2021/04/13 01:28:09;;;;;;;15.77;13.97;;;4.10;99.90;;;;;;5083190;28;20658;-48
2021/04/13 01:30:47;;;;;;;15.03;13.43;;;5.90;99.90;;;;;;5078547;28;20547;-54
2021/04/13 01:33:20;;;;;;;16.50;13.60;;;4.20;99.90;;;;;;5063068;28;20193;-50
2021/04/13 01:35:54;;;;;;;14.47;12.97;;;4.10;99.90;;;;;;5083661;28;20243;-51
2021/04/13 01:38:26;;;;;;;15.87;13.17;;;4.10;99.90;;;;;;5087389;28;20198;-52
2021/04/13 01:43:27;;;;;;;12.73;11.43;;;4.00;99.90;;;;;;5077441;28;20657;-58
2021/04/13 01:45:53;;;;;;;13.17;11.77;;;4.00;99.90;;;;;;5083562;28;20667;-44
2021/04/13 01:48:19;;;;;;;14.73;11.53;;;4.00;99.90;;;;;;5079003;28;20183;-57
2021/04/13 01:50:53;;;;;;;12.27;10.97;;;4.10;99.90;;;;;;5089384;28;20261;-50
2021/04/13 01:53:21;;;;;;;11.53;10.33;;;4.10;99.90;;;;;;5078779;28;20645;-45
2021/04/13 01:55:48;;;;;;;11.50;10.13;;;4.20;99.90;;;;;;5083454;28;20210;-45
2021/04/13 01:58:32;;;;;;;10.77;9.60;;;4.20;99.90;;;;;;5088589;28;20603;-56
2021/04/13 02:01:13;;;;;;;11.47;9.83;;;4.20;99.90;;;;;;5079658;28;20174;-45
2021/04/13 02:03:51;;;;;;;10.73;9.40;;;4.00;99.90;;;;;;5088128;28;20737;-48
2021/04/13 02:06:31;;;;;;;10.47;9.03;;;3.90;99.90;;;;;;5090582;28;20197;-50
2021/04/13 02:09:06;;;;;;;8.90;8.00;;;3.90;99.90;;;;;;5079951;28;20185;-54
2021/04/13 02:11:34;;;;;;;8.20;7.40;;;3.90;99.90;;;;;;5088724;28;20182;-46
2021/04/13 02:14:08;;;;;;;7.27;6.23;;;3.80;99.90;;;;;;5087831;28;20253;-53
2021/04/13 02:16:44;;;;;;;7.93;5.93;;;3.80;99.90;;;;;;5080196;28;20202;-47
2021/04/13 02:19:11;;;;;;;5.90;5.30;;;3.80;99.90;;;;;;5065213;28;20280;-47
2021/04/13 02:21:49;;;;;;;7.00;6.30;;;3.80;99.90;;;;;;5088187;28;20261;-47
2021/04/13 02:24:19;;;;;;;7.13;5.90;;;3.90;99.90;;;;;;5089810;28;20173;-45
2021/04/13 02:26:49;;;;;;;6.47;5.30;;;3.90;99.90;;;;;;5079333;28;20190;-45
2021/04/13 02:29:17;;;;;;;6.57;5.40;;;3.90;99.90;;;;;;5090825;28;20174;-56
2021/04/13 02:31:49;;;;;;;7.00;5.30;;;3.90;99.90;;;;;;5084869;28;20328;-46
2021/04/13 02:34:38;;;;;;;7.23;5.60;;;4.00;99.90;;;;;;5082666;28;20186;-57
2021/04/13 02:37:26;;;;;;;6.27;5.07;;;3.90;99.90;;;;;;5079258;28;20565;-50
2021/04/13 02:39:54;;;;;;;5.47;4.60;;;4.00;99.90;;;;;;5085472;28;20237;-46
2021/04/13 02:42:25;;;;;;;5.00;4.50;;;4.00;99.90;;;;;;5090112;28;20189;-52
2021/04/13 02:45:00;;;;;;;4.73;4.33;;;4.00;99.90;;;;;;5079290;28;20251;-47
2021/04/13 02:47:28;;;;;;;5.00;4.50;;;4.10;99.90;;;;;;5088931;28;20198;-54
2021/04/13 02:49:57;;;;;;;4.47;4.03;;;4.00;99.90;;;;;;5086337;28;20193;-49
2021/04/13 02:52:28;;;;;;;4.67;4.27;;;4.00;99.90;;;;;;5081024;28;20193;-54
2021/04/13 02:54:58;;;;;;;5.17;4.20;;;4.10;99.90;;;;;;5092381;28;20177;-56
2021/04/13 02:57:31;;;;;;;4.70;4.20;;;4.10;99.90;;;;;;5081878;28;20207;-50
2021/04/13 03:00:16;;;;;;;4.90;4.30;;;4.20;99.90;;;;;;5084055;28;20216;-45
2021/04/13 03:02:46;;;;;;;4.83;3.87;;;4.20;99.90;;;;;;5092233;28;20176;-46
2021/04/13 03:05:18;;;;;;;4.43;3.60;;;4.30;99.90;;;;;;5080270;28;20231;-46
2021/04/13 03:07:44;;;;;;;4.97;3.80;;;4.40;99.90;;;;;;5086166;28;20183;-45
2021/04/13 03:10:13;;;;;;;5.17;3.70;;;4.40;99.90;;;;;;5087329;28;20265;-48
2021/04/13 03:12:46;;;;;;;3.23;2.93;;;4.50;99.90;;;;;;5078322;28;20185;-58
2021/04/13 03:15:16;;;;;;;4.33;3.27;;;4.60;99.90;;;;;;5090522;28;20178;-46
2021/04/13 03:17:49;;;;;;;3.93;3.20;;;4.60;99.90;;;;;;5084146;28;20178;-46
2021/04/13 03:20:22;;;;;;;3.80;3.50;;;4.70;99.90;;;;;;5081525;28;20206;-46
2021/04/13 03:22:51;;;;;;;4.50;3.10;;;4.70;99.90;;;;;;5091489;28;20188;-55
2021/04/13 03:25:16;;;;;;;3.80;3.27;;;4.70;99.90;;;;;;5080347;28;20177;-51
2021/04/13 03:27:43;;;;;;;3.53;3.13;;;4.70;99.90;;;;;;5086124;28;20178;-57
2021/04/13 03:30:31;;;;;;;3.40;3.10;;;4.70;99.90;;;;;;5087516;28;20224;-47
2021/04/13 03:33:16;;;;;;;3.70;3.40;;;4.80;99.90;;;;;;5078145;28;20220;-46
2021/04/13 03:35:43;;;;;;;3.40;2.73;;;4.80;99.90;;;;;;5085743;28;20220;-50
2021/04/13 03:38:12;;;;;;;3.47;3.07;;;4.70;99.90;;;;;;5087450;28;20272;-45
2021/04/13 03:40:44;;;;;;;4.03;3.27;;;4.70;99.90;;;;;;5077889;28;20700;-46
2021/04/13 03:43:12;;;;;;;4.30;3.30;;;4.70;99.90;;;;;;5090221;28;20183;-47
2021/04/13 03:45:38;;;;;;;3.90;3.13;;;4.70;99.90;;;;;;5082965;28;20198;-45
2021/04/13 03:48:15;;;;;;;4.57;2.90;;;4.60;99.90;;;;;;5082527;28;20228;-51
2021/04/13 03:50:41;;;;;;;5.47;3.17;;;4.70;99.90;;;;;;5091157;28;20200;-55
2021/04/13 03:53:10;;;;;;;3.50;3.20;;;4.70;99.90;;;;;;5078524;28;20177;-45
2021/04/13 03:55:36;;;;;;;3.70;3.40;;;4.60;99.90;;;;;;5086406;28;20205;-45
2021/04/13 03:58:23;;;;;;;4.27;3.87;;;4.40;99.90;;;;;;5085926;28;20174;-51
2021/04/13 04:00:52;;;;;;;4.27;3.83;;;4.20;99.90;;;;;;5076200;28;20201;-46
2021/04/13 04:03:17;;;;;;;3.57;3.20;;;4.20;99.90;;;;;;5089067;28;20205;-58
2021/04/13 04:05:56;;;;;;;3.63;3.33;;;4.10;99.90;;;;;;5083403;28;20225;-53
2021/04/13 04:08:35;;;;;;;4.33;3.57;;;4.00;99.90;;;;;;5079107;28;20650;-54
2021/04/13 04:11:01;;;;;;;4.53;3.43;;;4.00;99.90;;;;;;5089186;28;20231;-47
2021/04/13 04:13:44;;;;;;;5.80;3.80;;;3.90;99.90;;;;;;5080909;28;20185;-47
2021/04/13 04:16:18;;;;;;;3.87;3.47;;;3.90;99.90;;;;;;5081192;28;20558;-56
2021/04/13 04:18:49;;;;;;;5.93;3.80;;;3.80;99.90;;;;;;5090629;28;20460;-59
2021/04/13 04:21:27;;;;;;;5.90;3.90;;;3.70;99.90;;;;;;5077827;28;20189;-53
2021/04/13 04:24:22;;;;;;;5.33;3.57;;;3.70;99.90;;;;;;5083676;28;20186;-45
2021/04/13 04:26:51;;;;;;;5.80;3.70;;;3.70;99.90;;;;;;5090568;28;20202;-46
2021/04/13 04:29:40;;;;;;;4.73;3.83;;;3.70;99.90;;;;;;5079086;28;20641;-56
2021/04/13 04:32:15;;;;;;;4.33;3.57;;;3.70;99.90;;;;;;5081625;28;20680;-54
2021/04/13 04:34:49;;;;;;;3.80;3.50;;;3.70;99.90;;;;;;5090633;28;20230;-53
2021/04/13 04:37:23;;;;;;;5.03;3.57;;;3.70;99.90;;;;;;5078811;28;20248;-48
2021/04/13 04:40:27;;;;;;;4.60;3.60;;;3.60;99.90;;;;;;5083469;28;20198;-53
2021/04/13 04:43:00;;;;;;;4.00;3.13;;;3.70;99.90;;;;;;5080702;28;20178;-53
2021/04/13 04:45:44;;;;;;;3.87;3.53;;;3.70;99.90;;;;;;5080392;28;20181;-57
2021/04/13 04:48:24;;;;;;;4.27;3.87;;;3.80;99.90;;;;;;5080976;28;20189;-47
2021/04/13 04:50:52;;;;;;;5.07;4.07;;;3.70;99.90;;;;;;5090082;28;20177;-57
2021/04/13 04:53:19;;;;;;;5.43;4.73;;;3.80;99.90;;;;;;5079317;28;20177;-59
2021/04/13 04:55:52;;;;;;;8.83;5.73;;;3.90;99.90;;;;;;5084330;28;20198;-46
2021/04/13 04:58:18;;;;;;;6.20;5.50;;;3.80;99.90;;;;;;5087430;28;20206;-52
2021/04/13 05:00:43;;;;;;;6.23;5.63;;;3.80;99.90;;;;;;5076587;28;20198;-53
2021/04/13 05:03:09;;;;;;;6.80;6.10;;;3.80;99.90;;;;;;5089007;28;20209;-47
2021/04/13 05:05:35;;;;;;;5.57;5.00;;;3.70;99.90;;;;;;5081314;28;20221;-51
2021/04/13 05:08:01;;;;;;;6.00;5.40;;;3.70;99.90;;;;;;5082017;28;20187;-57
2021/04/13 05:10:26;;;;;;;5.63;5.00;;;3.60;99.90;;;;;;5088326;28;20178;-51
2021/04/13 05:12:52;;;;;;;5.83;5.23;;;3.70;99.90;;;;;;5075976;28;20265;-47
2021/04/13 05:15:17;;;;;;;5.67;5.00;;;3.80;99.90;;;;;;5074228;28;20267;-52
2021/04/13 05:17:43;;;;;;;5.80;5.30;;;3.80;99.90;;;;;;5068334;28;20175;-55
2021/04/13 05:20:09;;;;;;;6.77;6.17;;;3.80;99.90;;;;;;5066102;28;20601;-47
2021/04/13 05:22:34;;;;;;;6.00;5.40;;;3.80;99.90;;;;;;5063253;28;20724;-50
2021/04/13 05:25:00;;;;;;;5.83;5.23;;;3.70;99.90;;;;;;5063809;28;20181;-56
2021/04/13 05:27:26;;;;;;;5.33;4.63;;;3.80;99.90;;;;;;5064803;28;20202;-48
2021/04/13 05:29:51;;;;;;;5.20;4.57;;;3.80;99.90;;;;;;5056864;28;20761;-52
2021/04/13 05:32:17;;;;;;;4.73;4.33;;;3.60;99.90;;;;;;5060183;28;21786;-46
2021/04/13 05:34:43;;;;;;;4.23;3.83;;;3.50;99.90;;;;;;5059718;28;20191;-56
2021/04/13 05:37:10;;;;;;;4.53;4.13;;;3.40;99.90;;;;;;5067374;28;20217;-58
2021/04/13 05:39:36;;;;;;;4.40;4.00;;;3.40;99.90;;;;;;5061667;28;20207;-52
2021/04/13 05:42:02;;;;;;;9.20;3.93;;;3.40;99.90;;;;;;5061836;28;20899;-51
2021/04/13 05:44:28;;;;;;;4.30;3.90;;;3.40;99.90;;;;;;5062424;28;20190;-49
2021/04/13 05:46:54;;;;;;;3.80;3.50;;;3.40;99.90;;;;;;5077055;28;20198;-55
2021/04/13 05:49:20;;;;;;;5.40;3.20;;;3.40;99.90;;;;;;5060621;28;20286;-46
2021/04/13 05:51:45;;;;;;;3.50;3.20;;;3.50;99.90;;;;;;5067260;28;20262;-52
2021/04/13 05:54:11;;;;;;;4.40;3.50;;;3.50;99.90;;;;;;5067993;28;20547;-47
2021/04/13 05:56:41;;;;;;;3.33;3.03;;;3.50;99.90;;;;;;5066616;28;20199;-55
2021/04/13 05:59:09;;;;;;;3.30;3.00;;;3.60;99.90;;;;;;5062193;28;20742;-54
2021/04/13 06:01:36;;;;;;;3.63;3.33;;;3.60;99.90;;;;;;5067870;28;20194;-58
2021/04/13 06:04:02;;;;;;;4.20;3.50;;;3.60;99.90;;;;;;5077911;28;20178;-48
2021/04/13 06:06:28;;;;;;;4.13;3.77;;;3.70;99.90;;;;;;5079587;28;20218;-55
2021/04/13 06:08:54;;;;;;;3.60;3.30;;;3.60;99.90;;;;;;5074698;28;20179;-47
2021/04/13 06:11:27;;;;;;;3.63;3.33;;;3.60;99.90;;;;;;5088054;28;20642;-48
2021/04/13 06:13:57;;;;;;;4.10;3.70;;;3.60;99.90;;;;;;5083956;28;20277;-58
2021/04/13 06:16:26;;;;;;;4.20;3.80;;;3.60;99.90;;;;;;5062485;28;20619;-48
2021/04/13 06:18:51;;;;;;;4.73;4.20;;;3.60;99.90;;;;;;5071433;28;20215;-56
2021/04/13 06:21:17;;;;;;;5.33;4.40;;;3.60;99.90;;;;;;5061832;28;20179;-55
2021/04/13 06:23:42;;;;;;;5.30;4.80;;;3.60;99.90;;;;;;5041237;28;20202;-53
2021/04/13 06:26:08;;;;;;;6.30;5.40;;;3.60;99.90;;;;;;5064882;28;20207;-51
2021/04/13 06:28:34;;;;;;;6.60;5.90;;;3.70;99.90;;;;;;5065129;28;20634;-51
2021/04/13 06:30:59;;;;;;;7.07;6.37;;;3.70;99.90;;;;;;5063518;28;20204;-52
2021/04/13 06:33:27;;;;;;;13.03;9.83;;;3.60;99.90;;;;;;5065099;28;20216;-45
2021/04/13 06:35:56;;;;;;;5.70;5.10;;;3.60;99.90;;;;;;5061935;28;20214;-51
2021/04/13 06:38:23;;;;;;;6.13;5.53;;;3.50;99.90;;;;;;5067991;28;20293;-55
2021/04/13 06:41:10;;;;;;;6.27;5.63;;;3.50;99.90;;;;;;5065648;28;20218;-47
2021/04/13 06:43:47;;;;;;;5.70;5.10;;;3.50;99.90;;;;;;5060297;28;20179;-51
2021/04/13 06:46:41;;;;;;;5.37;4.83;;;3.50;99.90;;;;;;5066620;28;20221;-50
2021/04/13 06:49:22;;;;;;;5.60;5.00;;;3.50;99.90;;;;;;5058325;28;20720;-47
2021/04/13 06:52:06;;;;;;;5.40;4.90;;;3.40;99.90;;;;;;5069786;28;20189;-50
2021/04/13 06:54:56;;;;;;;5.23;4.73;;;3.30;99.90;;;;;;5066870;28;20198;-51
2021/04/13 06:57:26;;;;;;;4.97;4.47;;;3.20;99.90;;;;;;5063323;28;20344;-52
2021/04/13 06:59:51;;;;;;;6.60;5.63;;;3.20;99.90;;;;;;5063355;28;20214;-52
2021/04/13 07:02:29;;;;;;;5.30;4.80;;;3.40;99.90;;;;;;5058268;28;20195;-54
2021/04/13 07:05:04;;;;;;;4.70;4.30;;;3.50;99.90;;;;;;5090920;28;20174;-53
2021/04/13 07:07:43;;;;;;;4.43;4.03;;;3.60;99.90;;;;;;5081931;28;20261;-52
2021/04/13 07:10:19;;;;;;;4.50;4.10;;;3.60;99.90;;;;;;5082207;28;20174;-51
2021/04/13 07:13:05;;;;;;;4.20;3.80;;;3.40;99.90;;;;;;5085766;28;20200;-45
2021/04/13 07:15:33;;;;;;;4.60;4.20;;;3.30;99.90;;;;;;5088028;28;20678;-52
2021/04/13 07:18:12;;;;;;;4.57;4.17;;;3.30;99.90;;;;;;5086687;28;20222;-52
2021/04/13 07:21:04;;;;;;;4.63;4.10;;;3.40;99.90;;;;;;5066272;28;20264;-53
2021/04/13 07:23:47;;;;;;;3.90;3.60;;;3.40;99.90;;;;;;5081403;28;20197;-58
2021/04/13 07:26:35;;;;;;;4.60;3.73;;;3.50;99.90;;;;;;5081748;28;20276;-57
2021/04/13 07:29:12;;;;;;;4.07;3.67;;;3.70;99.90;;;;;;5091347;28;20634;-52
2021/04/13 07:32:04;;;;;;;4.07;3.67;;;3.70;99.90;;;;;;5082812;28;20177;-51
2021/04/13 07:34:30;;;;;;;3.80;3.47;;;3.70;99.90;;;;;;5078758;28;20641;-53
2021/04/13 07:37:03;;;;;;;3.20;2.90;;;3.70;99.90;;;;;;5091340;28;20245;-54
2021/04/13 07:39:30;;;;;;;3.53;3.23;;;3.70;99.90;;;;;;5081624;28;20201;-56
2021/04/13 07:42:05;;;;;;;3.90;3.60;;;3.50;99.90;;;;;;5082288;28;20190;-46
2021/04/13 07:45:01;;;;;;;4.10;3.70;;;3.60;99.90;;;;;;5089055;28;20173;-48
2021/04/13 07:47:50;;;;;;;3.67;3.37;;;3.50;99.90;;;;;;5067460;28;20223;-49
2021/04/13 07:50:22;;;;;;;3.57;3.30;;;3.50;99.90;;;;;;5080747;28;20189;-55
2021/04/13 07:53:00;;;;;;;3.60;3.30;;;3.50;99.90;;;;;;5090752;28;20257;-55
2021/04/13 07:56:17;;;;;;;3.93;3.63;;;3.60;99.90;;;;;;5075473;28;20182;-48
2021/04/13 07:59:02;;;;;;;3.87;3.53;;;3.80;99.90;;;;;;5046532;28;20215;-51
2021/04/13 08:01:28;;;;;;;3.70;3.40;;;3.90;99.90;;;;;;5081269;28;20313;-58
2021/04/13 08:03:54;;;;;;;4.10;3.70;;;3.90;99.90;;;;;;5069757;28;20260;-54
2021/04/13 08:06:28;;;;;;;3.97;3.57;;;4.00;99.90;;;;;;5088361;28;20202;-56
2021/04/13 08:09:26;;;;;;;4.03;3.70;;;4.00;99.90;;;;;;5076564;28;20264;-49
2021/04/13 08:12:13;;;;;;;4.40;4.00;;;3.90;99.90;;;;;;5083579;28;20174;-48
2021/04/13 08:14:44;;;;;;;3.37;3.10;;;3.90;99.90;;;;;;5090664;28;20182;-58
2021/04/13 08:17:23;;;;;;;3.40;3.10;;;3.80;99.90;;;;;;5078500;28;20193;-57
2021/04/13 08:20:01;;;;;;;4.20;3.80;;;3.90;99.90;;;;;;5084020;28;20238;-51
2021/04/13 08:22:28;;;;;;;4.50;4.10;;;4.00;99.90;;;;;;5088988;28;20628;-54
2021/04/13 08:24:58;;;;;;;3.90;3.60;;;3.90;99.90;;;;;;5077085;28;20182;-53
2021/04/13 08:27:43;;;;;;;4.80;4.20;;;3.80;99.90;;;;;;5087328;28;20201;-48
2021/04/13 08:30:33;;;;;;;4.73;4.23;;;3.90;99.90;;;;;;5086451;28;20197;-53
2021/04/13 08:33:32;;;;;;;4.83;4.37;;;4.00;99.90;;;;;;5076936;28;20226;-47
2021/04/13 08:36:09;;;;;;;4.83;4.43;;;4.10;99.90;;;;;;5073395;28;20571;-51
2021/04/13 08:38:55;;;;;;;5.07;4.57;;;3.90;99.90;;;;;;5090063;28;20665;-50
2021/04/13 08:41:45;;;;;;;5.13;4.63;;;3.90;99.90;;;;;;5073656;28;20231;-54
2021/04/13 08:44:13;;;;;;;5.57;5.07;;;3.70;99.90;;;;;;5073779;28;20194;-52
2021/04/13 08:46:54;;;;;;;5.93;5.27;;;3.70;99.90;;;;;;5090084;28;20719;-58
2021/04/13 08:49:22;;;;;;;6.43;5.73;;;3.70;99.90;;;;;;5079193;28;20667;-58
2021/04/13 08:52:26;;;;;;;8.57;5.93;;;3.70;99.90;;;;;;5083673;28;20174;-48
2021/04/13 08:55:11;;;;;;;7.63;6.53;;;3.80;99.90;;;;;;5026556;28;20246;-55
2021/04/13 08:57:40;;;;;;;7.27;6.57;;;3.90;99.90;;;;;;5019695;28;20183;-57
2021/04/13 09:00:36;;;;;;;8.73;7.83;;;3.90;99.90;;;;;;5017543;28;20212;-51
2021/04/13 09:03:05;;;;;;;7.50;6.80;;;4.10;99.90;;;;;;5020415;28;20183;-48
2021/04/13 09:05:35;;;;;;;7.63;6.83;;;4.30;99.90;;;;;;5023641;28;20725;-48
2021/04/13 09:08:11;;;;;;;8.20;7.40;;;4.40;99.90;;;;;;5027282;28;20195;-51
2021/04/13 09:10:46;;;;;;;8.10;7.30;;;4.60;99.90;;;;;;5021302;28;20709;-48
2021/04/13 09:13:21;;;;;;;8.00;7.20;;;4.80;99.90;;;;;;5022669;28;20181;-46
2021/04/13 09:16:11;;;;;;;8.77;7.87;;;4.90;99.90;;;;;;5028168;28;20188;-56
2021/04/13 09:18:45;;;;;;;8.50;7.70;;;5.00;99.90;;;;;;5024888;28;20291;-53
2021/04/13 09:21:46;;;;;;;9.17;8.23;;;5.20;99.90;;;;;;5007065;28;20175;-54
2021/04/13 09:24:26;;;;;;;8.73;7.83;;;5.10;99.90;;;;;;5024762;28;20206;-59
2021/04/13 09:26:57;;;;;;;9.50;8.50;;;5.00;99.90;;;;;;5096595;28;20190;-48
2021/04/13 09:29:50;;;;;;;9.27;8.37;;;5.10;99.90;;;;;;5086006;28;20177;-47
2021/04/13 09:32:27;;;;;;;8.73;7.90;;;5.10;99.90;;;;;;5085813;28;20544;-47
2021/04/13 09:35:14;;;;;;;9.67;8.67;;;4.90;99.90;;;;;;5096550;28;20174;-58
2021/04/13 09:37:45;;;;;;;9.50;8.50;;;4.90;99.90;;;;;;5085557;28;20185;-48
2021/04/13 09:40:16;;;;;;;9.73;8.73;;;5.00;99.90;;;;;;5086595;28;20673;-50
2021/04/13 09:42:57;;;;;;;8.30;7.50;;;5.20;99.90;;;;;;5080690;28;20189;-54
2021/04/13 09:45:47;;;;;;;9.07;8.03;;;5.30;99.90;;;;;;5068290;28;20223;-57
2021/04/13 09:48:45;;;;;;;9.30;8.30;;;5.40;99.90;;;;;;5070350;28;20179;-56
2021/04/13 09:51:38;;;;;;;9.43;8.53;;;5.40;99.90;;;;;;5070721;28;20182;-46
2021/04/13 09:54:17;;;;;;;8.90;8.00;;;5.40;99.90;;;;;;5088787;28;20211;-51
2021/04/13 09:56:48;;;;;;;9.00;8.10;;;5.20;99.90;;;;;;5065052;28;20528;-50
2021/04/13 09:59:43;;;;;;;9.30;8.30;;;5.10;99.90;;;;;;5068320;28;20215;-56
2021/04/13 10:02:19;;;;;;;8.60;7.70;;;5.20;99.90;;;;;;5079054;28;20193;-55
2021/04/13 10:05:03;;;;;;;9.30;8.40;;;5.20;99.90;;;;;;5087465;28;20248;-57
2021/04/13 10:07:43;;;;;;;10.33;8.10;;;5.30;99.90;;;;;;5090658;28;20193;-54
2021/04/13 10:10:20;;;;;;;10.40;9.27;;;5.30;99.90;;;;;;5091798;28;20712;-56
2021/04/13 10:13:24;;;;;;;9.50;8.50;;;5.20;99.90;;;;;;5082581;28;20182;-58
2021/04/13 10:16:04;;;;;;;9.03;7.83;;;5.10;99.90;;;;;;5088914;28;20232;-51
2021/04/13 10:18:51;;;;;;;8.77;7.87;;;5.10;99.90;;;;;;5069410;28;20195;-47
2021/04/13 10:21:57;;;;;;;9.40;8.40;;;5.10;99.90;;;;;;5066768;28;20165;-58
2021/04/13 10:24:37;;;;;;;9.00;8.07;;;5.00;99.90;;;;;;5084487;28;20173;-47
2021/04/13 10:27:27;;;;;;;10.23;9.13;;;4.90;99.90;;;;;;5063211;28;20200;-57
2021/04/13 10:29:52;;;;;;;9.57;8.57;;;4.90;99.90;;;;;;5090759;28;20316;-55
2021/04/13 10:32:41;;;;;;;10.80;9.70;;;5.00;99.90;;;;;;5081918;28;20616;-58
2021/04/13 10:35:31;;;;;;;10.10;9.00;;;5.00;99.90;;;;;;5068567;28;20679;-55
2021/04/13 10:38:28;;;;;;;9.43;8.37;;;5.10;99.90;;;;;;5084046;28;20549;-56
2021/04/13 10:41:07;;;;;;;8.73;7.70;;;5.10;99.90;;;;;;5081123;28;20189;-55
2021/04/13 10:44:25;;;;;;;8.50;7.60;;;5.10;99.90;;;;;;5064837;28;20722;-50
2021/04/13 10:47:07;;;;;;;11.60;6.67;;;5.10;99.90;;;;;;5061618;28;20206;-52
2021/04/13 10:50:07;;;;;;;7.50;6.80;;;5.00;99.90;;;;;;5064964;28;20180;-58
2021/04/13 10:53:00;;;;;;;8.87;7.67;;;4.80;99.90;;;;;;5077588;28;20174;-48
2021/04/13 10:56:04;;;;;;;9.07;8.17;;;4.80;99.90;;;;;;5066146;28;20518;-49
2021/04/13 10:59:07;;;;;;;8.73;7.83;;;4.70;99.90;;;;;;5074133;28;20202;-48
2021/04/13 11:01:41;;;;;;;9.83;8.83;;;4.70;99.90;;;;;;5056294;28;20166;-51
2021/04/13 11:04:27;;;;;;;10.90;9.80;;;5.00;99.90;;;;;;5088136;28;20648;-57
2021/04/13 11:07:05;;;;;;;10.87;9.77;;;5.20;99.90;;;;;;5079951;28;20277;-50
2021/04/13 11:09:44;;;;;;;11.13;10.03;;;5.50;99.90;;;;;;5091080;28;20196;-55
2021/04/13 11:12:13;;;;;;;10.53;9.53;;;5.70;99.90;;;;;;5080104;28;20174;-56
2021/04/13 11:14:47;;;;;;;9.90;8.90;;;5.80;99.90;;;;;;5074502;28;20569;-52
2021/04/13 11:17:33;;;;;;;8.63;7.73;;;5.90;99.90;;;;;;5089780;28;20196;-47
2021/04/13 11:20:29;;;;;;;9.40;8.40;;;6.00;99.90;;;;;;5081516;28;20190;-47
2021/04/13 11:23:23;;;;;;;8.77;7.87;;;5.90;99.90;;;;;;5066411;28;20179;-49
2021/04/13 11:26:35;;;;;;;8.90;8.00;;;5.80;99.90;;;;;;5066022;28;20201;-59
2021/04/13 11:29:29;;;;;;;9.57;8.57;;;5.70;99.90;;;;;;5075189;28;20187;-58
2021/04/13 11:32:03;;;;;;;8.87;7.83;;;6.10;99.90;;;;;;5066574;28;20218;-49
2021/04/13 11:34:55;;;;;;;8.40;7.60;;;6.50;99.90;;;;;;5078587;28;20247;-50
2021/04/13 11:37:39;;;;;;;7.97;7.17;;;6.60;99.90;;;;;;5089590;28;20201;-47
2021/04/13 11:40:10;;;;;;;7.70;6.90;;;6.50;99.90;;;;;;5081199;28;20610;-55
2021/04/13 11:42:41;;;;;;;9.17;8.27;;;6.20;99.90;;;;;;5071522;28;20239;-55
2021/04/13 11:45:25;;;;;;;9.30;8.40;;;6.10;99.90;;;;;;5089751;28;20178;-51
2021/04/13 11:48:09;;;;;;;10.73;9.70;;;6.10;99.90;;;;;;5065278;28;20461;-47
2021/04/13 11:50:57;;;;;;;9.87;8.87;;;6.00;99.90;;;;;;5060711;28;20178;-46
2021/04/13 11:53:32;;;;;;;10.40;9.40;;;7.80;99.90;;;;;;5088073;28;20273;-47
2021/04/13 11:55:59;;;;;;;8.87;7.97;;;6.00;99.90;;;;;;5080822;28;20212;-54
2021/04/13 11:58:33;;;;;;;9.40;8.30;;;6.10;99.90;;;;;;5072120;28;20220;-50
2021/04/13 12:01:14;;;;;;;7.80;7.00;;;6.30;99.90;;;;;;5074347;28;20205;-47
2021/04/13 12:04:13;;;;;;;8.17;7.30;;;6.40;99.90;;;;;;5063582;28;20170;-52
2021/04/13 12:07:03;;;;;;;7.73;6.93;;;6.60;99.90;;;;;;5076963;28;20197;-48
2021/04/13 12:09:47;;;;;;;8.00;7.30;;;6.60;99.90;;;;;;5073315;28;20178;-57
2021/04/13 12:12:31;;;;;;;8.43;7.57;;;6.60;99.90;;;;;;5077648;28;20209;-45
2021/04/13 12:15:20;;;;;;;8.03;7.23;;;7.00;99.90;;;;;;5087938;28;20265;-55
2021/04/13 12:17:50;;;;;;;7.03;6.33;;;7.40;99.90;;;;;;5063817;28;20184;-50
2021/04/13 12:20:28;;;;;;;6.97;6.33;;;7.60;99.90;;;;;;5083473;28;20218;-46
2021/04/13 12:23:14;;;;;;;8.33;7.53;;;8.00;99.90;;;;;;5083591;28;20170;-54
2021/04/13 12:25:52;;;;;;;8.10;7.30;;;8.20;99.90;;;;;;5041246;28;20201;-50
2021/04/13 12:28:18;;;;;;;7.10;6.40;;;8.20;99.90;;;;;;5083914;28;20521;-47
2021/04/13 12:30:44;;;;;;;8.23;7.43;;;8.30;99.90;;;;;;5074260;28;20174;-55
2021/04/13 12:33:24;;;;;;;12.50;11.20;;;8.20;99.90;;;;;;5073954;28;20197;-46
2021/04/13 12:35:50;;;;;;;7.30;6.50;;;8.30;99.90;;;;;;5087546;28;20665;-46
2021/04/13 12:38:56;;;;;;;7.47;6.77;;;8.10;99.90;;;;;;5071176;28;20178;-45
2021/04/13 12:41:31;;;;;;;30.67;24.60;;;7.80;99.90;;;;;;5077784;28;20174;-54
2021/04/13 12:44:00;;;;;;;9.40;8.10;;;7.60;99.90;;;;;;5080078;28;20260;-54
2021/04/13 12:46:31;;;;;;;7.27;6.57;;;7.70;99.90;;;;;;5082304;28;20182;-46
2021/04/13 12:49:22;;;;;;;7.17;6.47;;;7.90;99.90;;;;;;5087764;28;20177;-53
2021/04/13 12:52:04;;;;;;;7.53;6.83;;;7.70;99.90;;;;;;5044168;28;20268;-46
2021/04/13 12:54:33;;;;;;;6.90;6.27;;;7.40;99.90;;;;;;5080082;28;20657;-47
2021/04/13 12:57:18;;;;;;;7.73;6.93;;;7.30;99.90;;;;;;5089155;28;20255;-53
2021/04/13 12:59:45;;;;;;;8.53;7.63;;;7.30;99.90;;;;;;5063198;28;20665;-47
2021/04/13 13:02:31;;;;;;;7.80;6.97;;;7.30;99.90;;;;;;5083872;28;20174;-47
2021/04/13 13:04:57;;;;;;;7.40;6.63;;;7.50;99.90;;;;;;5088983;28;20169;-49
2021/04/13 13:07:27;;;;;;;7.37;6.67;;;7.60;99.90;;;;;;5076649;28;20194;-51
2021/04/13 13:09:53;;;;;;;8.20;6.87;;;7.70;99.90;;;;;;5086603;28;20528;-57
2021/04/13 13:12:23;;;;;;;7.97;7.17;;;7.80;99.90;;;;;;5083270;28;20256;-50
2021/04/13 13:14:51;;;;;;;7.57;6.87;;;7.90;99.90;;;;;;5078872;28;20175;-52
2021/04/13 13:17:25;;;;;;;7.57;6.77;;;8.10;99.90;;;;;;5089715;28;20201;-52
2021/04/13 13:19:53;;;;;;;7.27;6.00;;;8.50;99.90;;;;;;5079285;28;20200;-58
2021/04/13 13:22:46;;;;;;;7.40;6.70;;;9.00;99.90;;;;;;5083048;28;20182;-47
2021/04/13 13:25:15;;;;;;;5.70;5.20;;;9.30;99.90;;;;;;5090012;28;20169;-56
2021/04/13 13:27:41;;;;;;;5.50;5.00;;;9.20;99.90;;;;;;5078141;28;20195;-47
2021/04/13 13:30:10;;;;;;;6.13;5.57;;;8.80;99.90;;;;;;5084613;28;20178;-58
2021/04/13 13:32:37;;;;;;;5.97;5.37;;;8.30;99.90;;;;;;5085667;28;20283;-56
2021/04/13 13:35:07;;;;;;;5.93;5.43;;;7.90;99.90;;;;;;5076811;28;20186;-45
2021/04/13 13:37:48;;;;;;;5.83;5.33;;;7.30;99.90;;;;;;5060338;28;20182;-45
2021/04/13 13:40:21;;;;;;;5.63;5.13;;;6.80;99.90;;;;;;5083564;28;20202;-50
2021/04/13 13:42:48;;;;;;;5.40;4.90;;;6.60;99.90;;;;;;5086950;28;20507;-50